sensor_id;sensor_type;location;lat;lon;timestamp;temperature;humidity
31038;DHT22;17702;47.590;7.666;2023-04-19T00:01:18;10.10;99.90
31038;DHT22;17702;47.590;7.666;2023-04-19T00:03:44;10.10;99.90
31038;DHT22;17702;47.590;7.666;2023-04-19T00:06:10;10.00;99.90
31038;DHT22;17702;47.590;7.666;2023-04-19T00:08:38;10.00;99.90
31038;DHT22;17702;47.590;7.666;2023-04-19T00:11:04;10.00;99.90
31038;DHT22;17702;47.590;7.666;2023-04-19T00:13:29;9.90;99.90
31038;DHT22;17702;47.590;7.666;2023-04-19T00:15:55;9.90;99.90
31038;DHT22;17702;47.590;7.666;2023-04-19T00:18:20;9.90;99.90
31038;DHT22;17702;47.590;7.666;2023-04-19T00:20:46;9.80;99.90
31038;DHT22;17702;47.590;7.666;2023-04-19T00:23:13;9.80;99.90
31038;DHT22;17702;47.590;7.666;2023-04-19T00:25:38;9.80;99.90
31038;DHT22;17702;47.590;7.666;2023-04-19T00:28:04;9.90;99.90
31038;DHT22;17702;47.590;7.666;2023-04-19T00:30:29;9.90;99.90
31038;DHT22;17702;47.590;7.666;2023-04-19T00:32:55;9.90;99.90
31038;DHT22;17702;47.590;7.666;2023-04-19T00:35:20;9.80;99.90
31038;DHT22;17702;47.590;7.666;2023-04-19T00:37:46;9.80;99.90
31038;DHT22;17702;47.590;7.666;2023-04-19T00:40:11;9.60;99.90
31038;DHT22;17702;47.590;7.666;2023-04-19T00:42:37;9.60;99.90
31038;DHT22;17702;47.590;7.666;2023-04-19T00:45:02;9.60;99.90
31038;DHT22;17702;47.590;7.666;2023-04-19T00:47:28;9.40;99.90
31038;DHT22;17702;47.590;7.666;2023-04-19T00:49:54;9.30;99.90
31038;DHT22;17702;47.590;7.666;2023-04-19T00:52:20;9.40;99.90
31038;DHT22;17702;47.590;7.666;2023-04-19T00:54:46;9.40;99.90
31038;DHT22;17702;47.590;7.666;2023-04-19T00:57:12;9.30;99.90
31038;DHT22;17702;47.590;7.666;2023-04-19T00:59:38;9.20;99.90
31038;DHT22;17702;47.590;7.666;2023-04-19T01:02:04;9.20;99.90
31038;DHT22;17702;47.590;7.666;2023-04-19T01:04:29;9.20;99.90
31038;DHT22;17702;47.590;7.666;2023-04-19T01:06:55;9.10;99.90
31038;DHT22;17702;47.590;7.666;2023-04-19T01:09:20;9.10;99.90
31038;DHT22;17702;47.590;7.666;2023-04-19T01:11:46;9.00;99.90
31038;DHT22;17702;47.590;7.666;2023-04-19T01:14:11;9.10;99.90
31038;DHT22;17702;47.590;7.666;2023-04-19T01:16:37;9.00;99.90
31038;DHT22;17702;47.590;7.666;2023-04-19T01:19:03;8.90;99.90
31038;DHT22;17702;47.590;7.666;2023-04-19T01:21:28;9.00;99.90
31038;DHT22;17702;47.590;7.666;2023-04-19T01:23:54;8.80;99.90
31038;DHT22;17702;47.590;7.666;2023-04-19T01:26:20;8.70;99.90
31038;DHT22;17702;47.590;7.666;2023-04-19T01:28:45;8.60;99.90
31038;DHT22;17702;47.590;7.666;2023-04-19T01:31:11;8.50;99.90
31038;DHT22;17702;47.590;7.666;2023-04-19T01:33:36;8.60;99.90
31038;DHT22;17702;47.590;7.666;2023-04-19T01:36:02;8.60;99.90
31038;DHT22;17702;47.590;7.666;2023-04-19T01:38:28;8.70;99.90
31038;DHT22;17702;47.590;7.666;2023-04-19T01:40:53;8.80;99.90
31038;DHT22;17702;47.590;7.666;2023-04-19T01:43:21;8.90;99.90
31038;DHT22;17702;47.590;7.666;2023-04-19T01:45:46;8.90;99.90
31038;DHT22;17702;47.590;7.666;2023-04-19T01:48:12;8.90;99.90
31038;DHT22;17702;47.590;7.666;2023-04-19T01:50:37;8.80;99.90
31038;DHT22;17702;47.590;7.666;2023-04-19T01:53:03;8.80;99.90
31038;DHT22;17702;47.590;7.666;2023-04-19T01:55:28;8.80;99.90
31038;DHT22;17702;47.590;7.666;2023-04-19T01:57:54;8.70;99.90
31038;DHT22;17702;47.590;7.666;2023-04-19T02:00:20;8.70;99.90
31038;DHT22;17702;47.590;7.666;2023-04-19T02:02:46;8.60;99.90
31038;DHT22;17702;47.590;7.666;2023-04-19T02:05:11;8.50;99.90
31038;DHT22;17702;47.590;7.666;2023-04-19T02:07:37;8.50;99.90
31038;DHT22;17702;47.590;7.666;2023-04-19T02:10:03;8.60;99.90
31038;DHT22;17702;47.590;7.666;2023-04-19T02:12:29;8.60;99.90
31038;DHT22;17702;47.590;7.666;2023-04-19T02:14:58;8.40;99.90
31038;DHT22;17702;47.590;7.666;2023-04-19T02:17:24;8.30;99.90
31038;DHT22;17702;47.590;7.666;2023-04-19T02:19:50;8.30;99.90
31038;DHT22;17702;47.590;7.666;2023-04-19T02:22:16;8.30;99.90
31038;DHT22;17702;47.590;7.666;2023-04-19T02:24:41;8.40;99.90
31038;DHT22;17702;47.590;7.666;2023-04-19T02:27:07;8.30;99.90
31038;DHT22;17702;47.590;7.666;2023-04-19T02:29:32;8.30;99.90
31038;DHT22;17702;47.590;7.666;2023-04-19T02:31:58;8.20;99.90
31038;DHT22;17702;47.590;7.666;2023-04-19T02:34:23;8.20;99.90
31038;DHT22;17702;47.590;7.666;2023-04-19T02:36:49;8.20;99.90
31038;DHT22;17702;47.590;7.666;2023-04-19T02:39:14;8.20;99.90
31038;DHT22;17702;47.590;7.666;2023-04-19T02:41:41;8.20;99.90
31038;DHT22;17702;47.590;7.666;2023-04-19T02:44:06;8.30;99.90
31038;DHT22;17702;47.590;7.666;2023-04-19T02:46:32;8.30;99.90
31038;DHT22;17702;47.590;7.666;2023-04-19T02:48:59;8.30;99.90
31038;DHT22;17702;47.590;7.666;2023-04-19T02:51:24;8.30;99.90
31038;DHT22;17702;47.590;7.666;2023-04-19T02:53:51;8.30;99.90
31038;DHT22;17702;47.590;7.666;2023-04-19T02:56:17;8.40;99.90
31038;DHT22;17702;47.590;7.666;2023-04-19T02:58:42;8.40;99.90
31038;DHT22;17702;47.590;7.666;2023-04-19T03:01:08;8.50;99.90
31038;DHT22;17702;47.590;7.666;2023-04-19T03:03:33;8.50;99.90
31038;DHT22;17702;47.590;7.666;2023-04-19T03:05:59;8.40;99.90
31038;DHT22;17702;47.590;7.666;2023-04-19T03:08:24;8.50;99.90
31038;DHT22;17702;47.590;7.666;2023-04-19T03:10:50;8.60;99.90
31038;DHT22;17702;47.590;7.666;2023-04-19T03:13:15;8.50;99.90
31038;DHT22;17702;47.590;7.666;2023-04-19T03:15:41;8.40;99.90
31038;DHT22;17702;47.590;7.666;2023-04-19T03:18:06;8.40;99.90
31038;DHT22;17702;47.590;7.666;2023-04-19T03:20:32;8.50;99.90
31038;DHT22;17702;47.590;7.666;2023-04-19T03:22:58;8.50;99.90
31038;DHT22;17702;47.590;7.666;2023-04-19T03:25:24;8.50;99.90
31038;DHT22;17702;47.590;7.666;2023-04-19T03:27:50;8.40;99.90
31038;DHT22;17702;47.590;7.666;2023-04-19T03:30:16;8.50;99.90
31038;DHT22;17702;47.590;7.666;2023-04-19T03:32:42;8.40;99.90
31038;DHT22;17702;47.590;7.666;2023-04-19T03:35:08;8.50;99.90
31038;DHT22;17702;47.590;7.666;2023-04-19T03:37:33;8.70;99.90
31038;DHT22;17702;47.590;7.666;2023-04-19T03:39:59;8.80;99.90
31038;DHT22;17702;47.590;7.666;2023-04-19T03:42:24;8.80;99.90
31038;DHT22;17702;47.590;7.666;2023-04-19T03:44:50;8.70;99.90
31038;DHT22;17702;47.590;7.666;2023-04-19T03:47:15;8.60;99.90
31038;DHT22;17702;47.590;7.666;2023-04-19T03:49:41;8.70;99.90
31038;DHT22;17702;47.590;7.666;2023-04-19T03:52:06;8.70;99.90
31038;DHT22;17702;47.590;7.666;2023-04-19T03:54:32;8.80;99.90
31038;DHT22;17702;47.590;7.666;2023-04-19T03:56:57;8.90;99.90
31038;DHT22;17702;47.590;7.666;2023-04-19T03:59:23;8.90;99.90
31038;DHT22;17702;47.590;7.666;2023-04-19T04:01:49;8.80;99.90
31038;DHT22;17702;47.590;7.666;2023-04-19T04:04:14;8.80;99.90
31038;DHT22;17702;47.590;7.666;2023-04-19T04:06:40;8.70;99.90
31038;DHT22;17702;47.590;7.666;2023-04-19T04:09:06;8.70;99.90
31038;DHT22;17702;47.590;7.666;2023-04-19T04:11:31;8.70;99.90
31038;DHT22;17702;47.590;7.666;2023-04-19T04:13:57;8.90;99.90
31038;DHT22;17702;47.590;7.666;2023-04-19T04:16:22;8.80;99.90
31038;DHT22;17702;47.590;7.666;2023-04-19T04:18:48;8.80;99.90
31038;DHT22;17702;47.590;7.666;2023-04-19T04:21:13;8.90;99.90
31038;DHT22;17702;47.590;7.666;2023-04-19T04:23:39;8.90;99.90
31038;DHT22;17702;47.590;7.666;2023-04-19T04:26:04;8.80;99.90
31038;DHT22;17702;47.590;7.666;2023-04-19T04:28:30;8.80;99.90
31038;DHT22;17702;47.590;7.666;2023-04-19T04:30:56;8.70;99.90
31038;DHT22;17702;47.590;7.666;2023-04-19T04:33:25;8.70;99.90
31038;DHT22;17702;47.590;7.666;2023-04-19T04:35:51;8.80;99.90
31038;DHT22;17702;47.590;7.666;2023-04-19T04:38:17;8.80;99.90
31038;DHT22;17702;47.590;7.666;2023-04-19T04:40:43;8.80;99.90
31038;DHT22;17702;47.590;7.666;2023-04-19T04:43:13;8.80;99.90
31038;DHT22;17702;47.590;7.666;2023-04-19T04:45:38;8.80;99.90
31038;DHT22;17702;47.590;7.666;2023-04-19T04:48:04;9.00;99.90
31038;DHT22;17702;47.590;7.666;2023-04-19T04:50:29;9.10;99.90
31038;DHT22;17702;47.590;7.666;2023-04-19T04:52:55;9.10;99.90
31038;DHT22;17702;47.590;7.666;2023-04-19T04:55:20;9.00;99.90
31038;DHT22;17702;47.590;7.666;2023-04-19T04:57:46;9.00;99.90
31038;DHT22;17702;47.590;7.666;2023-04-19T05:00:11;9.10;99.90
31038;DHT22;17702;47.590;7.666;2023-04-19T05:02:37;9.00;99.90
31038;DHT22;17702;47.590;7.666;2023-04-19T05:05:03;9.10;99.90
31038;DHT22;17702;47.590;7.666;2023-04-19T05:07:28;9.30;99.90
31038;DHT22;17702;47.590;7.666;2023-04-19T05:09:54;9.30;99.90
31038;DHT22;17702;47.590;7.666;2023-04-19T05:12:19;9.30;99.90
31038;DHT22;17702;47.590;7.666;2023-04-19T05:14:45;9.20;99.90
31038;DHT22;17702;47.590;7.666;2023-04-19T05:17:10;9.30;99.90
31038;DHT22;17702;47.590;7.666;2023-04-19T05:19:36;9.30;99.90
31038;DHT22;17702;47.590;7.666;2023-04-19T05:22:01;9.30;99.90
31038;DHT22;17702;47.590;7.666;2023-04-19T05:24:27;9.30;99.90
31038;DHT22;17702;47.590;7.666;2023-04-19T05:26:52;9.40;99.90
31038;DHT22;17702;47.590;7.666;2023-04-19T05:29:18;9.40;99.90
31038;DHT22;17702;47.590;7.666;2023-04-19T05:31:43;9.40;99.90
31038;DHT22;17702;47.590;7.666;2023-04-19T05:34:09;9.40;99.90
31038;DHT22;17702;47.590;7.666;2023-04-19T05:36:34;9.50;99.90
31038;DHT22;17702;47.590;7.666;2023-04-19T05:38:59;9.50;99.90
31038;DHT22;17702;47.590;7.666;2023-04-19T05:41:25;9.50;99.90
31038;DHT22;17702;47.590;7.666;2023-04-19T05:43:51;9.50;99.90
31038;DHT22;17702;47.590;7.666;2023-04-19T05:46:16;9.50;99.90
31038;DHT22;17702;47.590;7.666;2023-04-19T05:48:42;9.50;99.90
31038;DHT22;17702;47.590;7.666;2023-04-19T05:51:07;9.50;99.90
31038;DHT22;17702;47.590;7.666;2023-04-19T05:53:33;9.60;99.90
31038;DHT22;17702;47.590;7.666;2023-04-19T05:55:58;9.60;99.90
31038;DHT22;17702;47.590;7.666;2023-04-19T05:58:24;9.50;99.90
31038;DHT22;17702;47.590;7.666;2023-04-19T06:00:50;9.60;99.90
31038;DHT22;17702;47.590;7.666;2023-04-19T06:03:16;9.60;99.90
31038;DHT22;17702;47.590;7.666;2023-04-19T06:05:41;9.60;99.90
31038;DHT22;17702;47.590;7.666;2023-04-19T06:08:07;9.60;99.90
31038;DHT22;17702;47.590;7.666;2023-04-19T06:10:34;9.70;99.90
31038;DHT22;17702;47.590;7.666;2023-04-19T06:12:59;9.70;99.90
31038;DHT22;17702;47.590;7.666;2023-04-19T06:15:25;9.70;99.90
31038;DHT22;17702;47.590;7.666;2023-04-19T06:17:51;9.90;99.90
31038;DHT22;17702;47.590;7.666;2023-04-19T06:20:16;9.90;99.90
31038;DHT22;17702;47.590;7.666;2023-04-19T06:22:43;9.90;99.90
31038;DHT22;17702;47.590;7.666;2023-04-19T06:25:09;10.00;99.90
31038;DHT22;17702;47.590;7.666;2023-04-19T06:27:34;10.00;99.90
31038;DHT22;17702;47.590;7.666;2023-04-19T06:30:00;10.00;99.90
31038;DHT22;17702;47.590;7.666;2023-04-19T06:32:25;10.00;99.90
31038;DHT22;17702;47.590;7.666;2023-04-19T06:34:51;10.10;99.90
31038;DHT22;17702;47.590;7.666;2023-04-19T06:37:17;10.20;99.90
31038;DHT22;17702;47.590;7.666;2023-04-19T06:39:42;10.20;99.90
31038;DHT22;17702;47.590;7.666;2023-04-19T06:42:07;10.20;99.90
31038;DHT22;17702;47.590;7.666;2023-04-19T06:44:33;10.20;99.90
31038;DHT22;17702;47.590;7.666;2023-04-19T06:46:58;10.20;99.90
31038;DHT22;17702;47.590;7.666;2023-04-19T06:49:24;10.20;99.90
31038;DHT22;17702;47.590;7.666;2023-04-19T06:51:49;10.30;99.90
31038;DHT22;17702;47.590;7.666;2023-04-19T06:54:15;10.40;99.90
31038;DHT22;17702;47.590;7.666;2023-04-19T06:56:43;10.40;99.90
31038;DHT22;17702;47.590;7.666;2023-04-19T06:59:13;10.30;99.90
31038;DHT22;17702;47.590;7.666;2023-04-19T07:01:38;10.40;99.90
31038;DHT22;17702;47.590;7.666;2023-04-19T07:04:05;10.40;99.90
31038;DHT22;17702;47.590;7.666;2023-04-19T07:06:32;10.50;99.90
31038;DHT22;17702;47.590;7.666;2023-04-19T07:08:57;10.60;99.90
31038;DHT22;17702;47.590;7.666;2023-04-19T07:11:23;10.60;99.90
31038;DHT22;17702;47.590;7.666;2023-04-19T07:13:49;10.70;99.90
31038;DHT22;17702;47.590;7.666;2023-04-19T07:16:14;10.70;99.90
31038;DHT22;17702;47.590;7.666;2023-04-19T07:18:40;10.80;99.90
31038;DHT22;17702;47.590;7.666;2023-04-19T07:21:06;10.70;99.90
31038;DHT22;17702;47.590;7.666;2023-04-19T07:23:31;10.80;99.90
31038;DHT22;17702;47.590;7.666;2023-04-19T07:25:56;10.80;99.90
31038;DHT22;17702;47.590;7.666;2023-04-19T07:28:22;10.80;99.90
31038;DHT22;17702;47.590;7.666;2023-04-19T07:30:48;10.90;99.90
31038;DHT22;17702;47.590;7.666;2023-04-19T07:33:13;10.90;99.90
31038;DHT22;17702;47.590;7.666;2023-04-19T07:35:38;10.90;99.90
31038;DHT22;17702;47.590;7.666;2023-04-19T07:38:04;11.00;99.90
31038;DHT22;17702;47.590;7.666;2023-04-19T07:40:30;11.00;99.90
31038;DHT22;17702;47.590;7.666;2023-04-19T07:42:55;11.10;99.90
31038;DHT22;17702;47.590;7.666;2023-04-19T07:45:21;11.10;99.90
31038;DHT22;17702;47.590;7.666;2023-04-19T07:47:47;11.20;99.90
31038;DHT22;17702;47.590;7.666;2023-04-19T07:50:12;11.20;99.90
31038;DHT22;17702;47.590;7.666;2023-04-19T07:52:38;11.20;99.90
31038;DHT22;17702;47.590;7.666;2023-04-19T07:55:04;11.30;99.90
31038;DHT22;17702;47.590;7.666;2023-04-19T07:57:30;11.40;99.90
31038;DHT22;17702;47.590;7.666;2023-04-19T07:59:55;11.40;99.90
31038;DHT22;17702;47.590;7.666;2023-04-19T08:02:26;11.40;99.90
31038;DHT22;17702;47.590;7.666;2023-04-19T08:04:54;11.50;99.90
31038;DHT22;17702;47.590;7.666;2023-04-19T08:07:20;11.60;99.90
31038;DHT22;17702;47.590;7.666;2023-04-19T08:09:48;11.60;99.90
31038;DHT22;17702;47.590;7.666;2023-04-19T08:12:13;11.60;99.90
31038;DHT22;17702;47.590;7.666;2023-04-19T08:14:38;11.70;99.90
31038;DHT22;17702;47.590;7.666;2023-04-19T08:17:04;11.70;99.90
31038;DHT22;17702;47.590;7.666;2023-04-19T08:19:30;11.70;99.90
31038;DHT22;17702;47.590;7.666;2023-04-19T08:21:55;11.80;99.90
31038;DHT22;17702;47.590;7.666;2023-04-19T08:24:21;11.80;99.90
31038;DHT22;17702;47.590;7.666;2023-04-19T08:26:47;11.90;99.90
31038;DHT22;17702;47.590;7.666;2023-04-19T08:29:20;12.00;99.90
31038;DHT22;17702;47.590;7.666;2023-04-19T08:31:46;12.00;99.90
31038;DHT22;17702;47.590;7.666;2023-04-19T08:34:11;12.00;99.90
31038;DHT22;17702;47.590;7.666;2023-04-19T08:36:37;12.00;99.90
31038;DHT22;17702;47.590;7.666;2023-04-19T08:39:03;12.10;99.90
31038;DHT22;17702;47.590;7.666;2023-04-19T08:41:31;12.20;99.90
31038;DHT22;17702;47.590;7.666;2023-04-19T08:43:57;12.20;99.90
31038;DHT22;17702;47.590;7.666;2023-04-19T08:46:23;12.30;99.90
31038;DHT22;17702;47.590;7.666;2023-04-19T08:48:51;12.30;99.90
31038;DHT22;17702;47.590;7.666;2023-04-19T08:51:17;12.40;99.90
31038;DHT22;17702;47.590;7.666;2023-04-19T08:53:44;12.40;99.90
31038;DHT22;17702;47.590;7.666;2023-04-19T08:56:10;12.40;99.90
31038;DHT22;17702;47.590;7.666;2023-04-19T08:58:35;12.40;99.90
31038;DHT22;17702;47.590;7.666;2023-04-19T09:01:04;12.40;99.90
31038;DHT22;17702;47.590;7.666;2023-04-19T09:03:30;12.40;99.90
31038;DHT22;17702;47.590;7.666;2023-04-19T09:05:56;12.40;99.90
31038;DHT22;17702;47.590;7.666;2023-04-19T09:08:25;12.40;99.90
31038;DHT22;17702;47.590;7.666;2023-04-19T09:10:55;12.40;99.90
31038;DHT22;17702;47.590;7.666;2023-04-19T09:13:21;12.40;99.90
31038;DHT22;17702;47.590;7.666;2023-04-19T09:15:47;12.50;99.90
31038;DHT22;17702;47.590;7.666;2023-04-19T09:18:12;12.50;99.90
31038;DHT22;17702;47.590;7.666;2023-04-19T09:20:42;12.50;99.90
31038;DHT22;17702;47.590;7.666;2023-04-19T09:23:12;12.50;99.90
31038;DHT22;17702;47.590;7.666;2023-04-19T09:25:38;12.50;99.90
31038;DHT22;17702;47.590;7.666;2023-04-19T09:28:10;12.50;99.90
31038;DHT22;17702;47.590;7.666;2023-04-19T09:30:36;12.50;99.90
31038;DHT22;17702;47.590;7.666;2023-04-19T09:33:02;12.60;99.90
31038;DHT22;17702;47.590;7.666;2023-04-19T09:35:44;12.60;99.90
31038;DHT22;17702;47.590;7.666;2023-04-19T09:38:11;12.60;99.90
31038;DHT22;17702;47.590;7.666;2023-04-19T09:40:37;12.60;99.90
31038;DHT22;17702;47.590;7.666;2023-04-19T09:43:04;12.60;99.90
31038;DHT22;17702;47.590;7.666;2023-04-19T09:45:42;12.60;99.90
31038;DHT22;17702;47.590;7.666;2023-04-19T09:48:09;12.70;99.90
31038;DHT22;17702;47.590;7.666;2023-04-19T09:50:35;12.70;99.90
31038;DHT22;17702;47.590;7.666;2023-04-19T09:53:01;12.70;99.90
31038;DHT22;17702;47.590;7.666;2023-04-19T09:55:27;12.80;99.90
31038;DHT22;17702;47.590;7.666;2023-04-19T09:57:52;12.80;99.90
31038;DHT22;17702;47.590;7.666;2023-04-19T10:00:18;12.90;99.90
31038;DHT22;17702;47.590;7.666;2023-04-19T10:02:46;12.90;99.90
31038;DHT22;17702;47.590;7.666;2023-04-19T10:05:18;12.90;99.90
31038;DHT22;17702;47.590;7.666;2023-04-19T10:07:45;13.00;99.90
31038;DHT22;17702;47.590;7.666;2023-04-19T10:10:11;13.00;99.90
31038;DHT22;17702;47.590;7.666;2023-04-19T10:12:36;13.00;99.90
31038;DHT22;17702;47.590;7.666;2023-04-19T10:15:02;13.00;99.90
31038;DHT22;17702;47.590;7.666;2023-04-19T10:17:28;13.00;99.90
31038;DHT22;17702;47.590;7.666;2023-04-19T10:19:55;13.00;99.90
31038;DHT22;17702;47.590;7.666;2023-04-19T10:22:22;13.10;99.90
31038;DHT22;17702;47.590;7.666;2023-04-19T10:25:10;13.10;99.90
31038;DHT22;17702;47.590;7.666;2023-04-19T10:27:37;13.10;99.90
31038;DHT22;17702;47.590;7.666;2023-04-19T10:30:03;13.20;99.90
31038;DHT22;17702;47.590;7.666;2023-04-19T10:32:39;13.30;99.90
31038;DHT22;17702;47.590;7.666;2023-04-19T10:38:07;13.30;99.90
31038;DHT22;17702;47.590;7.666;2023-04-19T10:43:21;13.30;99.90
31038;DHT22;17702;47.590;7.666;2023-04-19T10:45:47;13.30;99.90
31038;DHT22;17702;47.590;7.666;2023-04-19T10:50:56;13.30;99.90
31038;DHT22;17702;47.590;7.666;2023-04-19T10:56:06;13.30;99.90
31038;DHT22;17702;47.590;7.666;2023-04-19T10:58:36;13.30;99.90
31038;DHT22;17702;47.590;7.666;2023-04-19T11:04:05;13.30;99.90
31038;DHT22;17702;47.590;7.666;2023-04-19T11:06:31;13.30;99.90
31038;DHT22;17702;47.590;7.666;2023-04-19T11:08:57;13.30;99.90
31038;DHT22;17702;47.590;7.666;2023-04-19T11:11:22;13.30;99.90
31038;DHT22;17702;47.590;7.666;2023-04-19T11:13:49;13.30;99.90
31038;DHT22;17702;47.590;7.666;2023-04-19T11:16:17;13.40;99.90
31038;DHT22;17702;47.590;7.666;2023-04-19T11:18:43;13.40;99.90
31038;DHT22;17702;47.590;7.666;2023-04-19T11:21:12;13.50;99.90
31038;DHT22;17702;47.590;7.666;2023-04-19T11:23:38;13.40;99.90
31038;DHT22;17702;47.590;7.666;2023-04-19T11:26:03;13.50;99.90
31038;DHT22;17702;47.590;7.666;2023-04-19T11:28:31;13.50;99.90
31038;DHT22;17702;47.590;7.666;2023-04-19T11:30:57;13.50;99.90
31038;DHT22;17702;47.590;7.666;2023-04-19T11:33:22;13.50;99.90
31038;DHT22;17702;47.590;7.666;2023-04-19T11:35:49;13.50;99.90
31038;DHT22;17702;47.590;7.666;2023-04-19T11:38:15;13.60;99.90
31038;DHT22;17702;47.590;7.666;2023-04-19T11:40:41;13.60;99.90
31038;DHT22;17702;47.590;7.666;2023-04-19T11:43:06;13.70;99.90
31038;DHT22;17702;47.590;7.666;2023-04-19T11:45:33;13.60;99.90
31038;DHT22;17702;47.590;7.666;2023-04-19T11:48:00;13.70;99.90
31038;DHT22;17702;47.590;7.666;2023-04-19T11:50:38;13.70;99.90
31038;DHT22;17702;47.590;7.666;2023-04-19T11:53:18;13.70;99.90
31038;DHT22;17702;47.590;7.666;2023-04-19T11:55:45;13.80;99.90
31038;DHT22;17702;47.590;7.666;2023-04-19T12:01:02;13.90;99.90
31038;DHT22;17702;47.590;7.666;2023-04-19T12:03:30;13.90;99.80
31038;DHT22;17702;47.590;7.666;2023-04-19T12:05:56;14.00;99.00
31038;DHT22;17702;47.590;7.666;2023-04-19T12:08:31;13.90;98.40
31038;DHT22;17702;47.590;7.666;2023-04-19T12:10:57;14.00;98.30
31038;DHT22;17702;47.590;7.666;2023-04-19T12:13:24;14.20;98.90
31038;DHT22;17702;47.590;7.666;2023-04-19T12:15:49;14.40;98.20
31038;DHT22;17702;47.590;7.666;2023-04-19T12:18:15;14.60;98.10
31038;DHT22;17702;47.590;7.666;2023-04-19T12:20:44;14.80;97.10
31038;DHT22;17702;47.590;7.666;2023-04-19T12:23:11;15.10;95.60
31038;DHT22;17702;47.590;7.666;2023-04-19T12:25:38;15.30;96.90
31038;DHT22;17702;47.590;7.666;2023-04-19T12:28:04;15.50;95.10
31038;DHT22;17702;47.590;7.666;2023-04-19T12:30:29;15.60;93.70
31038;DHT22;17702;47.590;7.666;2023-04-19T12:32:55;15.60;93.00
31038;DHT22;17702;47.590;7.666;2023-04-19T12:35:23;15.60;92.30
31038;DHT22;17702;47.590;7.666;2023-04-19T12:37:51;15.60;93.60
31038;DHT22;17702;47.590;7.666;2023-04-19T12:40:16;15.60;93.90
31038;DHT22;17702;47.590;7.666;2023-04-19T12:42:42;15.50;93.10
31038;DHT22;17702;47.590;7.666;2023-04-19T12:45:07;15.50;93.10
31038;DHT22;17702;47.590;7.666;2023-04-19T12:47:33;15.40;92.60
31038;DHT22;17702;47.590;7.666;2023-04-19T12:49:59;15.30;92.60
31038;DHT22;17702;47.590;7.666;2023-04-19T12:52:24;15.30;93.30
31038;DHT22;17702;47.590;7.666;2023-04-19T12:54:50;15.30;92.90
31038;DHT22;17702;47.590;7.666;2023-04-19T12:57:16;15.20;92.70
31038;DHT22;17702;47.590;7.666;2023-04-19T12:59:41;15.20;92.20
31038;DHT22;17702;47.590;7.666;2023-04-19T13:02:07;15.20;92.20
31038;DHT22;17702;47.590;7.666;2023-04-19T13:04:32;15.20;93.20
31038;DHT22;17702;47.590;7.666;2023-04-19T13:06:58;15.20;93.40
31038;DHT22;17702;47.590;7.666;2023-04-19T13:09:25;15.20;92.80
31038;DHT22;17702;47.590;7.666;2023-04-19T13:11:50;15.20;92.90
31038;DHT22;17702;47.590;7.666;2023-04-19T13:14:16;15.20;93.60
31038;DHT22;17702;47.590;7.666;2023-04-19T13:16:41;15.00;94.00
31038;DHT22;17702;47.590;7.666;2023-04-19T13:19:07;14.90;93.80
31038;DHT22;17702;47.590;7.666;2023-04-19T13:21:32;14.80;94.20
31038;DHT22;17702;47.590;7.666;2023-04-19T13:23:58;14.70;94.30
31038;DHT22;17702;47.590;7.666;2023-04-19T13:26:24;14.60;94.80
31038;DHT22;17702;47.590;7.666;2023-04-19T13:28:49;14.60;95.20
31038;DHT22;17702;47.590;7.666;2023-04-19T13:31:15;14.50;95.40
31038;DHT22;17702;47.590;7.666;2023-04-19T13:33:40;14.40;95.30
31038;DHT22;17702;47.590;7.666;2023-04-19T13:36:06;14.30;95.30
31038;DHT22;17702;47.590;7.666;2023-04-19T13:38:31;14.30;95.70
31038;DHT22;17702;47.590;7.666;2023-04-19T13:40:57;14.20;95.80
31038;DHT22;17702;47.590;7.666;2023-04-19T13:43:23;14.20;95.70
31038;DHT22;17702;47.590;7.666;2023-04-19T13:45:48;14.20;95.30
31038;DHT22;17702;47.590;7.666;2023-04-19T13:48:14;14.30;95.50
31038;DHT22;17702;47.590;7.666;2023-04-19T13:50:39;14.20;95.80
31038;DHT22;17702;47.590;7.666;2023-04-19T13:53:05;14.30;95.80
31038;DHT22;17702;47.590;7.666;2023-04-19T13:55:31;14.30;96.30
31038;DHT22;17702;47.590;7.666;2023-04-19T13:57:56;14.40;96.40
31038;DHT22;17702;47.590;7.666;2023-04-19T14:00:23;14.40;96.00
31038;DHT22;17702;47.590;7.666;2023-04-19T14:02:48;14.40;95.90
31038;DHT22;17702;47.590;7.666;2023-04-19T14:05:14;14.40;95.30
31038;DHT22;17702;47.590;7.666;2023-04-19T14:07:39;14.50;95.00
31038;DHT22;17702;47.590;7.666;2023-04-19T14:10:06;14.50;94.10
31038;DHT22;17702;47.590;7.666;2023-04-19T14:12:31;14.60;94.40
31038;DHT22;17702;47.590;7.666;2023-04-19T14:14:57;14.50;94.80
31038;DHT22;17702;47.590;7.666;2023-04-19T14:17:23;14.60;95.20
31038;DHT22;17702;47.590;7.666;2023-04-19T14:19:48;14.60;95.10
31038;DHT22;17702;47.590;7.666;2023-04-19T14:22:17;14.60;95.00
31038;DHT22;17702;47.590;7.666;2023-04-19T14:24:42;14.60;94.70
31038;DHT22;17702;47.590;7.666;2023-04-19T14:27:08;14.60;94.20
31038;DHT22;17702;47.590;7.666;2023-04-19T14:29:33;14.70;94.60
31038;DHT22;17702;47.590;7.666;2023-04-19T14:31:59;14.70;93.80
31038;DHT22;17702;47.590;7.666;2023-04-19T14:34:25;14.80;94.00
31038;DHT22;17702;47.590;7.666;2023-04-19T14:36:51;14.80;94.10
31038;DHT22;17702;47.590;7.666;2023-04-19T14:39:16;14.80;93.90
31038;DHT22;17702;47.590;7.666;2023-04-19T14:41:42;14.80;92.70
31038;DHT22;17702;47.590;7.666;2023-04-19T14:44:07;14.80;91.90
31038;DHT22;17702;47.590;7.666;2023-04-19T14:46:32;14.80;91.50
31038;DHT22;17702;47.590;7.666;2023-04-19T14:48:58;14.80;92.20
31038;DHT22;17702;47.590;7.666;2023-04-19T14:51:28;14.80;93.20
31038;DHT22;17702;47.590;7.666;2023-04-19T14:53:53;14.90;93.50
31038;DHT22;17702;47.590;7.666;2023-04-19T14:56:19;14.90;93.50
31038;DHT22;17702;47.590;7.666;2023-04-19T14:58:44;14.90;93.50
31038;DHT22;17702;47.590;7.666;2023-04-19T15:01:10;14.90;93.00
31038;DHT22;17702;47.590;7.666;2023-04-19T15:03:36;15.00;93.80
31038;DHT22;17702;47.590;7.666;2023-04-19T15:06:01;15.00;93.60
31038;DHT22;17702;47.590;7.666;2023-04-19T15:08:28;15.10;93.80
31038;DHT22;17702;47.590;7.666;2023-04-19T15:10:54;15.10;93.50
31038;DHT22;17702;47.590;7.666;2023-04-19T15:13:19;15.10;93.70
31038;DHT22;17702;47.590;7.666;2023-04-19T15:15:45;15.00;93.90
31038;DHT22;17702;47.590;7.666;2023-04-19T15:18:10;15.00;94.00
31038;DHT22;17702;47.590;7.666;2023-04-19T15:20:36;15.00;94.00
31038;DHT22;17702;47.590;7.666;2023-04-19T15:23:01;15.00;94.20
31038;DHT22;17702;47.590;7.666;2023-04-19T15:25:27;14.90;93.40
31038;DHT22;17702;47.590;7.666;2023-04-19T15:27:52;14.90;93.90
31038;DHT22;17702;47.590;7.666;2023-04-19T15:30:18;14.80;93.60
31038;DHT22;17702;47.590;7.666;2023-04-19T15:32:43;14.90;93.40
31038;DHT22;17702;47.590;7.666;2023-04-19T15:35:09;14.80;93.70
31038;DHT22;17702;47.590;7.666;2023-04-19T15:37:34;14.80;93.10
31038;DHT22;17702;47.590;7.666;2023-04-19T15:40:00;14.80;93.10
31038;DHT22;17702;47.590;7.666;2023-04-19T15:42:25;14.70;95.00
31038;DHT22;17702;47.590;7.666;2023-04-19T15:44:51;14.70;96.00
31038;DHT22;17702;47.590;7.666;2023-04-19T15:47:16;14.70;96.20